Time;durP1;ratioP1;P1;durP2;ratioP2;P2;SDS_P1;SDS_P2;PMS_P1;PMS_P2;Temp;Humidity;BMP_temperature;BMP_pressure;BME280_temperature;BME280_humidity;BME280_pressure;Samples;Min_cycle;Max_cycle;Signal;HPM_P1;HPM_P2
2023/06/23 00:01:18;;;;;;;19.97;12.00;;;16.10;99.90;;;;;;5032250;28;20034;-63
2023/06/23 00:03:45;;;;;;;21.05;13.18;;;16.10;99.90;;;;;;5041579;28;20517;-64
2023/06/23 00:06:14;;;;;;;25.25;13.65;;;16.40;99.90;;;;;;5042431;28;20072;-63
2023/06/23 00:08:40;;;;;;;20.87;13.63;;;16.00;99.90;;;;;;5034274;28;20148;-62
2023/06/23 00:11:10;;;;;;;27.83;15.20;;;16.30;99.90;;;;;;5039367;28;20044;-63
2023/06/23 00:13:37;;;;;;;25.52;14.27;;;16.00;99.90;;;;;;5037063;28;20051;-64
2023/06/23 00:16:06;;;;;;;30.17;14.45;;;16.10;99.90;;;;;;5033810;28;20033;-64
2023/06/23 00:18:37;;;;;;;23.70;13.73;;;16.40;99.90;;;;;;5034850;28;20377;-63
2023/06/23 00:21:06;;;;;;;;;;;16.80;99.90;;;;;;5032303;28;23363;-63
2023/06/23 00:23:32;;;;;;;24.27;13.82;;;16.70;99.90;;;;;;5034716;28;19924;-63
2023/06/23 00:25:58;;;;;;;25.80;15.07;;;16.80;99.90;;;;;;5046417;28;20035;-63
2023/06/23 00:28:25;;;;;;;24.65;14.02;;;16.00;99.90;;;;;;5043197;28;20033;-63
2023/06/23 00:30:51;;;;;;;26.65;15.38;;;16.40;99.90;;;;;;5041258;28;20037;-64
2023/06/23 00:33:17;;;;;;;26.40;15.13;;;16.90;99.90;;;;;;5042720;28;20047;-64
2023/06/23 00:35:43;;;;;;;26.40;15.68;;;16.90;99.90;;;;;;5045217;28;20128;-64
2023/06/23 00:38:09;;;;;;;24.40;14.65;;;16.10;99.90;;;;;;5043970;28;20538;-64
2023/06/23 00:40:34;;;;;;;27.92;15.38;;;16.10;99.90;;;;;;5046502;28;20032;-64
2023/06/23 00:43:00;;;;;;;22.70;14.52;;;16.90;99.90;;;;;;5043239;28;20068;-64
2023/06/23 00:45:26;;;;;;;24.40;15.50;;;16.10;99.90;;;;;;5043562;28;20044;-63
2023/06/23 00:47:52;;;;;;;24.95;14.07;;;16.00;99.90;;;;;;5036427;28;20528;-64
2023/06/23 00:50:23;;;;;;;26.25;14.32;;;16.80;99.90;;;;;;5037526;28;20358;-64
2023/06/23 00:52:50;;;;;;;25.45;15.38;;;16.10;99.90;;;;;;5051054;28;20033;-64
2023/06/23 00:55:20;;;;;;;24.80;14.52;;;16.20;99.90;;;;;;5028830;28;20037;-64
2023/06/23 00:57:46;;;;;;;23.90;14.93;;;16.00;99.90;;;;;;5031570;28;20045;-64
2023/06/23 01:00:19;;;;;;;21.58;13.88;;;16.40;99.90;;;;;;5029781;28;20060;-64
2023/06/23 01:02:49;;;;;;;23.25;14.98;;;16.70;99.90;;;;;;5028729;28;20036;-64
2023/06/23 01:05:15;;;;;;;25.60;14.93;;;16.40;99.90;;;;;;5038755;28;20033;-65
2023/06/23 01:07:51;;;;;;;23.85;14.45;;;16.70;99.90;;;;;;5040646;28;20867;-64
2023/06/23 01:10:31;;;;;;;22.48;13.98;;;16.60;99.90;;;;;;5040034;28;20044;-65
2023/06/23 01:13:15;;;;;;;25.40;13.63;;;16.30;99.90;;;;;;5034433;28;20165;-63
2023/06/23 01:15:48;;;;;;;23.05;12.77;;;15.90;99.90;;;;;;5039660;28;20048;-63
2023/06/23 01:18:40;;;;;;;19.08;12.32;;;16.60;99.90;;;;;;5038197;28;20068;-64
2023/06/23 01:21:09;;;;;;;22.38;12.02;;;16.80;99.90;;;;;;5033008;28;20045;-66
2023/06/23 01:24:00;;;;;;;20.48;12.10;;;15.90;99.90;;;;;;5036732;28;20097;-65
2023/06/23 01:26:39;;;;;;;18.52;11.68;;;16.20;99.90;;;;;;5034281;28;20470;-65
2023/06/23 01:29:08;;;;;;;16.73;10.68;;;16.20;99.90;;;;;;5032514;28;20075;-64
2023/06/23 01:31:41;;;;;;;18.70;10.18;;;16.40;99.90;;;;;;5034720;28;20044;-64
2023/06/23 01:34:09;;;;;;;19.52;9.75;;;16.20;99.90;;;;;;5030899;28;20122;-65
2023/06/23 01:36:46;;;;;;;15.02;8.73;;;15.90;99.90;;;;;;5032187;28;20044;-63
2023/06/23 01:39:15;;;;;;;14.73;9.65;;;15.70;99.90;;;;;;5033367;28;20341;-64
2023/06/23 01:41:46;;;;;;;14.02;9.18;;;16.40;99.90;;;;;;5034572;28;20071;-66
2023/06/23 01:44:14;;;;;;;17.27;10.40;;;16.10;99.90;;;;;;5036160;28;20102;-64
2023/06/23 01:46:43;;;;;;;18.70;11.18;;;15.90;99.90;;;;;;5037326;28;20076;-65
2023/06/23 01:49:14;;;;;;;20.92;11.10;;;16.50;99.90;;;;;;5045067;28;20056;-64
2023/06/23 01:51:45;;;;;;;21.00;11.73;;;16.50;99.90;;;;;;5041281;28;20044;-63
2023/06/23 01:54:12;;;;;;;24.02;12.23;;;16.20;99.90;;;;;;5046755;28;20174;-64
2023/06/23 01:56:40;;;;;;;17.77;11.43;;;16.10;99.90;;;;;;5038172;28;21006;-63
2023/06/23 01:59:10;;;;;;;18.67;11.77;;;16.40;99.90;;;;;;5044077;28;20124;-63
2023/06/23 02:01:36;;;;;;;18.30;11.27;;;15.80;99.90;;;;;;5035404;28;20041;-64
2023/06/23 02:04:04;;;;;;;20.65;12.00;;;15.90;99.90;;;;;;5045606;28;20064;-64
2023/06/23 02:06:32;;;;;;;23.33;12.40;;;16.40;99.90;;;;;;5035890;28;20065;-63
2023/06/23 02:08:58;;;;;;;18.33;10.88;;;16.30;99.90;;;;;;5040139;28;20388;-63
2023/06/23 02:11:26;;;;;;;24.05;11.90;;;16.10;99.90;;;;;;5029917;28;20041;-63
2023/06/23 02:13:55;;;;;;;20.70;12.38;;;16.40;99.90;;;;;;5038676;28;20037;-64
2023/06/23 02:16:23;;;;;;;17.83;11.15;;;16.50;99.90;;;;;;5040733;28;20082;-64
2023/06/23 02:18:54;;;;;;;17.15;10.77;;;16.20;99.90;;;;;;5038474;28;20607;-63
2023/06/23 02:21:22;;;;;;;18.27;11.05;;;16.30;99.90;;;;;;5034346;28;20037;-66
2023/06/23 02:23:49;;;;;;;19.10;10.45;;;16.20;99.90;;;;;;5030331;28;20030;-65
2023/06/23 02:26:15;;;;;;;16.00;9.68;;;16.10;99.90;;;;;;5038347;28;20116;-63
2023/06/23 02:28:42;;;;;;;16.10;10.40;;;16.00;99.90;;;;;;5040587;28;20049;-63
2023/06/23 02:31:10;;;;;;;17.02;9.70;;;15.90;99.90;;;;;;5040628;28;20199;-64
2023/06/23 02:33:37;;;;;;;14.77;9.55;;;15.80;99.90;;;;;;5049920;28;20449;-63
2023/06/23 02:36:05;;;;;;;20.13;9.55;;;15.80;99.90;;;;;;5044569;28;20044;-64
2023/06/23 02:38:36;;;;;;;15.38;9.48;;;15.80;99.90;;;;;;5040416;28;20124;-63
2023/06/23 02:41:06;;;;;;;15.63;8.60;;;15.80;99.90;;;;;;5045614;28;20109;-64
2023/06/23 02:43:37;;;;;;;19.42;9.20;;;16.30;99.90;;;;;;5034313;28;20033;-63
2023/06/23 02:46:05;;;;;;;15.75;9.02;;;16.20;99.90;;;;;;5042448;28;20041;-64
2023/06/23 02:48:35;;;;;;;15.43;8.48;;;15.90;99.90;;;;;;5036961;28;20049;-63
2023/06/23 02:51:02;;;;;;;14.27;8.75;;;15.80;99.90;;;;;;5047750;28;20068;-63
2023/06/23 02:53:33;;;;;;;14.55;8.27;;;16.00;99.90;;;;;;5009239;28;20041;-64
2023/06/23 02:56:07;;;;;;;13.50;8.55;;;15.70;99.90;;;;;;5041735;28;20068;-63
2023/06/23 02:58:34;;;;;;;13.35;8.68;;;15.90;99.90;;;;;;5039546;28;20037;-63
2023/06/23 03:01:04;;;;;;;15.27;9.02;;;15.80;99.90;;;;;;5036672;28;20033;-64
2023/06/23 03:03:33;;;;;;;13.73;8.25;;;16.00;99.90;;;;;;5032448;28;20091;-64
2023/06/23 03:05:59;;;;;;;15.63;7.93;;;15.90;99.90;;;;;;5041366;28;20029;-63
2023/06/23 03:08:28;;;;;;;12.43;7.80;;;15.60;99.90;;;;;;5030613;28;20415;-63
2023/06/23 03:10:54;;;;;;;12.20;8.20;;;16.00;99.90;;;;;;5040413;28;20049;-63
2023/06/23 03:13:20;;;;;;;15.60;7.75;;;15.70;99.90;;;;;;5039876;28;20041;-63
2023/06/23 03:15:48;;;;;;;11.30;6.82;;;16.00;99.90;;;;;;5041974;28;20445;-63
2023/06/23 03:18:22;;;;;;;13.88;7.32;;;15.90;99.90;;;;;;5039822;28;20566;-63
2023/06/23 03:20:50;;;;;;;13.75;7.78;;;15.80;99.90;;;;;;5041035;28;20052;-64
2023/06/23 03:23:17;;;;;;;13.05;7.40;;;15.70;99.90;;;;;;5042092;28;20109;-63
2023/06/23 03:25:47;;;;;;;14.73;6.93;;;15.90;99.90;;;;;;5047660;28;20037;-63
2023/06/23 03:28:18;;;;;;;13.60;7.40;;;15.90;99.90;;;;;;5039073;28;20587;-63
2023/06/23 03:30:47;;;;;;;13.48;6.88;;;15.50;99.90;;;;;;5031713;28;20710;-63
2023/06/23 03:33:26;;;;;;;10.82;6.68;;;15.60;99.90;;;;;;5036621;28;20454;-63
2023/06/23 03:35:55;;;;;;;12.77;6.82;;;15.70;99.90;;;;;;5042568;28;20403;-63
2023/06/23 03:38:23;;;;;;;13.60;7.72;;;15.60;99.90;;;;;;5033294;28;20132;-64
2023/06/23 03:40:58;;;;;;;13.38;7.60;;;15.50;99.90;;;;;;5041926;28;20057;-63
2023/06/23 03:43:28;;;;;;;13.65;7.55;;;15.70;99.90;;;;;;5037804;28;20044;-63
2023/06/23 03:45:58;;;;;;;17.35;7.82;;;15.60;99.90;;;;;;5042689;28;20044;-63
2023/06/23 03:48:28;;;;;;;15.77;7.90;;;15.60;99.90;;;;;;5035082;28;20055;-63
2023/06/23 03:50:57;;;;;;;14.32;8.23;;;15.60;99.90;;;;;;5035369;28;20338;-62
2023/06/23 03:53:25;;;;;;;16.95;7.95;;;15.60;99.90;;;;;;5045286;28;20041;-63
2023/06/23 03:55:53;;;;;;;12.85;8.05;;;15.70;99.90;;;;;;5046592;28;20124;-63
2023/06/23 03:58:20;;;;;;;12.27;7.70;;;15.60;99.90;;;;;;5040007;28;20098;-65
2023/06/23 04:00:47;;;;;;;14.98;7.68;;;15.60;99.90;;;;;;5038066;28;20036;-65
2023/06/23 04:03:15;;;;;;;14.55;7.43;;;15.60;99.90;;;;;;5036721;28;20083;-63
2023/06/23 04:05:43;;;;;;;13.50;7.65;;;15.50;99.90;;;;;;5034206;28;20049;-64
2023/06/23 04:08:10;;;;;;;11.77;7.47;;;15.90;99.90;;;;;;5034278;28;20041;-65
2023/06/23 04:10:37;;;;;;;15.05;7.75;;;15.60;99.90;;;;;;5032941;28;20190;-64
2023/06/23 04:13:05;;;;;;;15.10;8.57;;;15.80;99.90;;;;;;5030016;28;20064;-63
2023/06/23 04:15:33;;;;;;;11.60;8.02;;;15.50;99.90;;;;;;5035492;28;20095;-63
2023/06/23 04:18:02;;;;;;;13.20;8.43;;;15.80;99.90;;;;;;5034492;28;20068;-65
2023/06/23 04:20:30;;;;;;;14.60;8.20;;;15.60;99.90;;;;;;5034177;28;20041;-63
2023/06/23 04:22:57;;;;;;;18.80;8.30;;;15.60;99.90;;;;;;5034164;28;20045;-63
2023/06/23 04:25:23;;;;;;;14.93;8.13;;;15.60;99.90;;;;;;5048870;28;20033;-63
2023/06/23 04:27:51;;;;;;;15.77;8.30;;;15.80;99.90;;;;;;5046305;28;20090;-63
2023/06/23 04:30:20;;;;;;;16.50;7.78;;;15.70;99.90;;;;;;5045794;28;20127;-64
2023/06/23 04:32:45;;;;;;;14.13;7.97;;;15.80;99.90;;;;;;5038051;28;20033;-63
2023/06/23 04:35:11;;;;;;;15.48;7.40;;;15.80;99.90;;;;;;5045213;28;20029;-64
2023/06/23 04:37:39;;;;;;;16.15;7.75;;;15.80;99.90;;;;;;5043210;28;20568;-64
2023/06/23 04:40:23;;;;;;;13.73;8.63;;;15.80;99.90;;;;;;5048538;28;20127;-63
2023/06/23 04:43:13;;;;;;;13.57;7.60;;;15.80;99.90;;;;;;5032853;28;20060;-64
2023/06/23 04:45:47;;;;;;;14.75;8.05;;;15.70;99.90;;;;;;5040933;28;20052;-63
2023/06/23 04:48:13;;;;;;;13.52;8.45;;;15.90;99.90;;;;;;5044365;28;20119;-64
2023/06/23 04:50:41;;;;;;;16.48;9.10;;;15.70;99.90;;;;;;5035811;28;20041;-64
2023/06/23 04:53:15;;;;;;;13.43;8.70;;;15.70;99.90;;;;;;5037272;28;20056;-63
2023/06/23 04:55:45;;;;;;;16.52;8.77;;;15.80;99.90;;;;;;5044556;28;20045;-63
2023/06/23 04:58:12;;;;;;;18.47;9.03;;;15.70;99.90;;;;;;5043071;28;20045;-63
2023/06/23 05:00:39;;;;;;;16.48;8.82;;;15.70;99.90;;;;;;5041515;28;20041;-63
2023/06/23 05:03:07;;;;;;;17.15;8.90;;;15.80;99.90;;;;;;5040426;28;20041;-63
2023/06/23 05:05:34;;;;;;;13.80;8.32;;;15.80;99.90;;;;;;5038569;28;20062;-64
2023/06/23 05:08:02;;;;;;;14.95;8.40;;;15.70;99.90;;;;;;5025239;28;20096;-63
2023/06/23 05:10:29;;;;;;;15.52;8.95;;;15.80;99.90;;;;;;5037577;28;20047;-64
2023/06/23 05:12:57;;;;;;;16.63;9.38;;;15.80;99.90;;;;;;5032488;28;20071;-63
2023/06/23 05:15:24;;;;;;;17.45;8.75;;;15.90;99.90;;;;;;5032644;28;20037;-63
2023/06/23 05:17:52;;;;;;;15.45;8.27;;;16.00;99.90;;;;;;5033431;28;20106;-63
2023/06/23 05:20:20;;;;;;;15.93;8.95;;;15.90;99.90;;;;;;5032251;28;20043;-63
2023/06/23 05:22:48;;;;;;;15.60;9.13;;;16.00;99.90;;;;;;5035732;28;20044;-64
2023/06/23 05:25:15;;;;;;;16.00;8.63;;;15.90;99.90;;;;;;5033962;28;20545;-63
2023/06/23 05:27:45;;;;;;;17.65;8.93;;;16.10;99.90;;;;;;5029289;28;20073;-63
2023/06/23 05:30:17;;;;;;;16.17;9.07;;;16.20;99.90;;;;;;5013488;28;20037;-63
2023/06/23 05:32:44;;;;;;;18.63;9.32;;;16.00;99.90;;;;;;5028130;28;21033;-64
2023/06/23 05:35:11;;;;;;;16.02;8.50;;;16.20;99.90;;;;;;5030341;28;20033;-64
2023/06/23 05:37:39;;;;;;;13.10;8.30;;;16.20;99.90;;;;;;5032873;28;20161;-63
2023/06/23 05:40:08;;;;;;;15.38;8.85;;;16.20;99.90;;;;;;5030264;28;20074;-63
2023/06/23 05:42:34;;;;;;;14.25;8.95;;;16.10;99.90;;;;;;5036397;28;20547;-63
2023/06/23 05:45:01;;;;;;;15.65;8.27;;;16.20;99.90;;;;;;5015591;28;20199;-64
2023/06/23 05:47:34;;;;;;;14.55;7.38;;;16.20;99.90;;;;;;5037270;28;20144;-63
2023/06/23 05:50:01;;;;;;;15.75;8.35;;;16.10;99.90;;;;;;5039478;28;20033;-64
2023/06/23 05:52:29;;;;;;;15.98;8.10;;;16.20;99.90;;;;;;5042352;28;20107;-65
2023/06/23 05:54:57;;;;;;;15.07;8.27;;;16.20;99.90;;;;;;5029910;28;20041;-64
2023/06/23 05:57:27;;;;;;;15.35;8.48;;;16.10;99.90;;;;;;5029912;28;20041;-63
2023/06/23 06:00:16;;;;;;;12.02;7.43;;;16.10;99.90;;;;;;5033972;28;20064;-64
2023/06/23 06:02:46;;;;;;;16.20;9.07;;;16.20;99.90;;;;;;5040801;28;20099;-63
2023/06/23 06:05:18;;;;;;;13.85;8.40;;;16.20;99.90;;;;;;5029755;28;20056;-65
2023/06/23 06:07:45;;;;;;;12.80;8.50;;;16.10;99.90;;;;;;5030584;28;20692;-64
2023/06/23 06:10:12;;;;;;;15.02;7.68;;;16.10;99.90;;;;;;5037951;28;20036;-64
2023/06/23 06:12:39;;;;;;;12.07;8.30;;;16.10;99.90;;;;;;5031392;28;20040;-64
2023/06/23 06:15:07;;;;;;;14.13;8.05;;;16.10;99.90;;;;;;5031867;28;20151;-64
2023/06/23 06:17:33;;;;;;;15.18;7.78;;;16.10;99.90;;;;;;5033684;28;20040;-64
2023/06/23 06:20:04;;;;;;;13.10;7.68;;;16.20;99.90;;;;;;5034862;28;20051;-64
2023/06/23 06:22:34;;;;;;;13.13;8.02;;;16.30;99.90;;;;;;5033952;28;20325;-65
2023/06/23 06:25:00;;;;;;;14.40;8.07;;;16.50;99.90;;;;;;5033073;28;20037;-64
2023/06/23 06:27:28;;;;;;;15.75;8.77;;;16.70;99.90;;;;;;5035734;28;20414;-65
2023/06/23 06:29:56;;;;;;;12.10;8.30;;;17.10;99.90;;;;;;5036851;28;20430;-65
2023/06/23 06:32:23;;;;;;;15.10;8.02;;;17.20;99.90;;;;;;5033659;28;20055;-66
2023/06/23 06:34:51;;;;;;;14.63;7.70;;;17.40;99.90;;;;;;5035708;28;20037;-66
2023/06/23 06:37:18;;;;;;;13.45;7.38;;;17.40;99.90;;;;;;5041825;28;20451;-66
2023/06/23 06:39:45;;;;;;;10.93;6.75;;;17.30;99.90;;;;;;5038839;28;20111;-66
2023/06/23 06:42:11;;;;;;;13.10;7.20;;;17.40;99.90;;;;;;5041744;28;20052;-66
2023/06/23 06:44:36;;;;;;;10.57;6.32;;;17.40;99.90;;;;;;5024902;28;20433;-66
2023/06/23 06:47:04;;;;;;;12.65;7.22;;;17.70;99.90;;;;;;5039788;28;20047;-66
2023/06/23 06:49:31;;;;;;;12.20;7.22;;;17.90;99.90;;;;;;5038250;28;20377;-66
2023/06/23 06:51:59;;;;;;;10.75;6.43;;;18.00;99.90;;;;;;5036412;28;20041;-66
2023/06/23 06:54:26;;;;;;;11.23;6.57;;;18.00;99.90;;;;;;5034262;28;20056;-66
2023/06/23 06:56:54;;;;;;;12.05;6.60;;;18.00;99.90;;;;;;5043890;28;20345;-66
2023/06/23 06:59:20;;;;;;;11.40;6.80;;;18.00;99.90;;;;;;5037112;28;20117;-66
2023/06/23 07:01:47;;;;;;;9.52;5.68;;;18.30;99.90;;;;;;5043811;28;20037;-67
2023/06/23 07:04:14;;;;;;;9.23;5.72;;;18.60;99.90;;;;;;5042862;28;20434;-67
2023/06/23 07:06:40;;;;;;;7.60;5.40;;;18.80;99.90;;;;;;5041687;28;20186;-67
2023/06/23 07:09:06;;;;;;;7.95;5.05;;;19.00;99.90;;;;;;5028948;28;20084;-68
2023/06/23 07:11:32;;;;;;;7.75;4.55;;;19.00;99.90;;;;;;5047022;28;20041;-68
2023/06/23 07:13:58;;;;;;;8.30;4.85;;;19.20;99.90;;;;;;5032334;28;20044;-68
2023/06/23 07:16:30;;;;;;;7.03;4.53;;;19.60;99.90;;;;;;5040138;28;20041;-69
2023/06/23 07:18:56;;;;;;;6.43;3.80;;;19.80;99.90;;;;;;5032635;28;20037;-68
2023/06/23 07:21:22;;;;;;;6.82;4.25;;;19.90;99.90;;;;;;5034081;28;20041;-69
2023/06/23 07:23:47;;;;;;;8.25;4.65;;;20.10;99.90;;;;;;5029954;28;20428;-69
2023/06/23 07:26:13;;;;;;;9.25;4.47;;;20.20;99.90;;;;;;5029037;28;20103;-70
2023/06/23 07:28:38;;;;;;;9.90;4.55;;;20.30;99.90;;;;;;5039588;28;20032;-69
2023/06/23 07:31:04;;;;;;;9.57;4.15;;;20.50;99.90;;;;;;5037463;28;20064;-70
2023/06/23 07:33:30;;;;;;;5.35;3.53;;;20.70;99.90;;;;;;5032801;28;20447;-69
2023/06/23 07:35:55;;;;;;;6.55;3.70;;;21.10;99.90;;;;;;5032620;28;20037;-69
2023/06/23 07:38:21;;;;;;;6.13;3.75;;;21.30;99.90;;;;;;5032819;28;20055;-69
2023/06/23 07:40:47;;;;;;;5.75;3.78;;;21.50;99.90;;;;;;5016178;28;20044;-69
2023/06/23 07:43:13;;;;;;;6.03;3.83;;;21.70;99.90;;;;;;5038393;28;20048;-70
2023/06/23 07:45:39;;;;;;;6.65;3.90;;;21.80;99.90;;;;;;5026904;28;20215;-68
2023/06/23 07:48:04;;;;;;;4.47;3.88;;;22.00;99.90;;;;;;5038353;28;20153;-69
2023/06/23 07:50:30;;;;;;;5.10;3.78;;;22.10;99.90;;;;;;5037626;28;20392;-68
2023/06/23 07:52:56;;;;;;;6.18;3.63;;;22.40;99.90;;;;;;5046348;28;20475;-69
2023/06/23 07:55:21;;;;;;;6.57;3.95;;;22.50;99.90;;;;;;5036882;28;20036;-70
2023/06/23 07:57:48;;;;;;;7.82;4.47;;;22.50;99.90;;;;;;5027895;28;20761;-69
2023/06/23 08:00:14;;;;;;;7.55;3.95;;;22.60;99.90;;;;;;5038366;28;20421;-69
2023/06/23 08:02:41;;;;;;;6.30;3.50;;;22.80;99.90;;;;;;5048016;28;20045;-68
2023/06/23 08:05:07;;;;;;;5.97;3.38;;;23.10;99.90;;;;;;5048397;28;20512;-68
2023/06/23 08:07:33;;;;;;;5.65;3.40;;;23.30;99.90;;;;;;5032197;28;20097;-68
2023/06/23 08:09:59;;;;;;;5.53;4.00;;;23.50;99.90;;;;;;5033744;28;20575;-68
2023/06/23 08:12:24;;;;;;;6.60;3.85;;;23.70;99.90;;;;;;5047210;28;20044;-68
2023/06/23 08:14:50;;;;;;;4.22;3.55;;;23.90;98.60;;;;;;5045410;28;20036;-67
2023/06/23 08:17:15;;;;;;;6.20;3.40;;;24.10;96.60;;;;;;5030780;28;20099;-67
2023/06/23 08:19:43;;;;;;;5.50;3.25;;;24.40;93.70;;;;;;5029498;28;20430;-67
2023/06/23 08:22:09;;;;;;;5.85;3.40;;;24.60;92.00;;;;;;5028884;28;20121;-68
2023/06/23 08:24:35;;;;;;;5.20;3.40;;;24.80;89.80;;;;;;5028937;28;20033;-67
2023/06/23 08:27:01;;;;;;;5.15;3.53;;;25.00;86.10;;;;;;5045476;28;20156;-68
2023/06/23 08:29:27;;;;;;;5.47;3.35;;;25.20;83.50;;;;;;5045455;28;20559;-67
2023/06/23 08:31:52;;;;;;;4.78;3.30;;;25.30;82.00;;;;;;5047041;28;20098;-68
2023/06/23 08:34:18;;;;;;;5.47;3.10;;;25.60;79.80;;;;;;5048080;28;20048;-68
2023/06/23 08:36:44;;;;;;;4.05;3.38;;;25.80;78.70;;;;;;5032844;28;20056;-66
2023/06/23 08:39:10;;;;;;;5.90;3.15;;;26.00;77.20;;;;;;5028758;28;20025;-66
2023/06/23 08:41:38;;;;;;;3.78;2.75;;;26.30;74.90;;;;;;5028310;28;20205;-66
2023/06/23 08:44:06;;;;;;;3.95;3.10;;;26.50;72.80;;;;;;5026154;28;20045;-69
2023/06/23 08:46:33;;;;;;;3.70;2.63;;;26.70;71.20;;;;;;5027117;28;20134;-66
2023/06/23 08:49:04;;;;;;;4.97;3.33;;;27.00;69.40;;;;;;5028638;28;20146;-66
2023/06/23 08:51:31;;;;;;;4.32;3.38;;;27.30;64.70;;;;;;5028643;28;20041;-67
2023/06/23 08:53:56;;;;;;;3.95;3.30;;;27.50;66.80;;;;;;5043422;28;20079;-66
2023/06/23 08:56:22;;;;;;;5.53;3.25;;;27.70;66.10;;;;;;5040200;28;20044;-66
2023/06/23 08:58:48;;;;;;;4.68;3.17;;;27.80;63.60;;;;;;5036792;28;20040;-66
2023/06/23 09:01:13;;;;;;;3.35;3.00;;;27.80;61.90;;;;;;5032662;28;20144;-65
2023/06/23 09:03:39;;;;;;;4.70;3.08;;;28.10;60.70;;;;;;5029488;28;20071;-66
2023/06/23 09:06:04;;;;;;;6.63;2.80;;;28.30;60.70;;;;;;5045051;28;20060;-67
2023/06/23 09:08:30;;;;;;;3.67;2.88;;;28.70;59.40;;;;;;5043106;28;20064;-65
2023/06/23 09:10:56;;;;;;;5.50;2.70;;;29.00;58.40;;;;;;5028623;28;20055;-64
2023/06/23 09:13:27;;;;;;;3.47;3.03;;;29.30;56.70;;;;;;5026019;28;20048;-66
2023/06/23 09:15:54;;;;;;;3.63;2.88;;;29.40;54.50;;;;;;5024977;28;20480;-65
2023/06/23 09:18:20;;;;;;;2.92;2.58;;;29.60;53.60;;;;;;5040658;28;20051;-65
2023/06/23 09:20:48;;;;;;;3.88;2.70;;;29.70;53.00;;;;;;5036056;28;20326;-62
2023/06/23 09:23:20;;;;;;;4.20;2.70;;;30.20;53.50;;;;;;5033294;28;20744;-62
2023/06/23 09:25:50;;;;;;;2.63;2.42;;;30.40;52.10;;;;;;5035821;28;20090;-63
2023/06/23 09:28:30;;;;;;;3.78;2.38;;;30.50;50.40;;;;;;5040532;28;20121;-62
2023/06/23 09:30:58;;;;;;;3.33;2.65;;;31.00;45.90;;;;;;5015997;28;20036;-62
2023/06/23 09:33:24;;;;;;;2.80;2.30;;;31.40;48.80;;;;;;5045442;28;20055;-62
2023/06/23 09:35:55;;;;;;;3.25;2.67;;;31.60;47.70;;;;;;5047503;28;20502;-62
2023/06/23 09:38:24;;;;;;;3.15;2.70;;;31.70;44.10;;;;;;5042463;28;21275;-63
2023/06/23 09:41:09;;;;;;;;;;;32.20;45.20;;;;;;5048352;28;20110;-62
2023/06/23 09:43:44;;;;;;;4.97;2.92;;;32.00;49.10;;;;;;5041927;28;19921;-62
2023/06/23 09:46:12;;;;;;;4.35;3.42;;;32.50;47.50;;;;;;5025428;28;20342;-62
2023/06/23 09:48:42;;;;;;;3.17;2.88;;;32.90;43.60;;;;;;5026941;28;20132;-64
2023/06/23 09:51:07;;;;;;;2.92;2.63;;;32.90;43.00;;;;;;5031582;28;20034;-63
2023/06/23 09:53:35;;;;;;;2.90;2.08;;;33.20;42.50;;;;;;5027243;28;20462;-62
2023/06/23 09:56:03;;;;;;;2.17;1.98;;;33.50;41.40;;;;;;5027590;28;20056;-62
2023/06/23 09:58:38;;;;;;;3.35;2.50;;;33.70;39.90;;;;;;5026331;28;20135;-62
2023/06/23 10:01:11;;;;;;;3.22;2.53;;;33.70;41.20;;;;;;5034374;28;20044;-62
2023/06/23 10:03:47;;;;;;;3.95;2.70;;;34.00;44.00;;;;;;5051299;28;20333;-63
2023/06/23 10:06:32;;;;;;;3.80;3.03;;;34.30;41.80;;;;;;5051301;28;20056;-63
2023/06/23 10:09:00;;;;;;;3.78;2.90;;;34.40;42.70;;;;;;5037909;28;20160;-63
2023/06/23 10:11:36;;;;;;;3.58;3.00;;;34.70;38.70;;;;;;5050095;28;20052;-63
2023/06/23 10:14:11;;;;;;;5.80;2.83;;;34.90;39.40;;;;;;5030365;28;20086;-64
2023/06/23 10:16:53;;;;;;;3.35;2.70;;;35.20;41.30;;;;;;5031482;28;20465;-63
2023/06/23 10:19:18;;;;;;;4.38;2.55;;;35.10;37.90;;;;;;5039839;28;20425;-63
2023/06/23 10:21:46;;;;;;;4.47;2.78;;;34.80;38.10;;;;;;5034846;28;20034;-65
2023/06/23 10:24:17;;;;;;;2.78;2.58;;;35.20;37.30;;;;;;5042189;28;20115;-63
2023/06/23 10:26:46;;;;;;;3.30;2.70;;;35.10;37.30;;;;;;5047179;28;20076;-65
2023/06/23 10:29:17;;;;;;;3.30;2.65;;;35.20;36.60;;;;;;5042206;28;20041;-63
2023/06/23 10:31:45;;;;;;;5.20;2.50;;;35.30;34.80;;;;;;5050179;28;20045;-63
2023/06/23 10:34:12;;;;;;;2.70;2.40;;;35.90;34.70;;;;;;5044083;28;20045;-63
2023/06/23 10:36:41;;;;;;;4.63;3.00;;;35.50;34.50;;;;;;5044654;28;20091;-62
2023/06/23 10:39:10;;;;;;;4.43;3.50;;;35.90;34.90;;;;;;5033198;28;20111;-65
2023/06/23 10:41:37;;;;;;;4.05;2.85;;;35.90;33.20;;;;;;5048772;28;20041;-63
2023/06/23 10:44:04;;;;;;;3.55;2.75;;;36.40;33.00;;;;;;5042176;28;20059;-64
2023/06/23 10:46:30;;;;;;;4.80;3.00;;;35.50;32.70;;;;;;5038088;28;20128;-64
2023/06/23 10:48:57;;;;;;;3.65;2.55;;;34.30;34.50;;;;;;5040464;28;20060;-64
2023/06/23 10:51:24;;;;;;;5.55;3.30;;;34.60;35.60;;;;;;5048157;28;20033;-62
2023/06/23 10:53:58;;;;;;;3.45;3.15;;;34.90;34.50;;;;;;5028779;28;20568;-62
2023/06/23 10:56:39;;;;;;;4.35;3.38;;;34.20;36.40;;;;;;5045665;28;20116;-62
2023/06/23 10:59:17;;;;;;;4.07;2.85;;;33.30;38.00;;;;;;5043368;28;20099;-65
2023/06/23 11:02:16;;;;;;;3.40;2.72;;;32.70;42.70;;;;;;5045932;28;20456;-62
2023/06/23 11:04:51;;;;;;;3.05;2.55;;;32.10;37.30;;;;;;5038685;28;20763;-62
2023/06/23 11:07:17;;;;;;;4.03;2.53;;;31.40;40.30;;;;;;5035299;28;20049;-62
2023/06/23 11:09:54;;;;;;;3.60;2.67;;;30.60;39.50;;;;;;5046517;28;20028;-62
2023/06/23 11:12:36;;;;;;;3.80;2.70;;;30.30;43.00;;;;;;5038132;28;20037;-64
2023/06/23 11:15:20;;;;;;;2.88;2.28;;;30.20;46.00;;;;;;5030342;28;20364;-63
2023/06/23 11:17:49;;;;;;;5.60;2.53;;;30.00;43.60;;;;;;5040991;28;20049;-64
2023/06/23 11:20:23;;;;;;;2.70;2.47;;;29.70;42.30;;;;;;5040192;28;20049;-62
2023/06/23 11:22:58;;;;;;;4.30;2.30;;;29.40;43.70;;;;;;5035660;28;20037;-64
2023/06/23 11:25:31;;;;;;;3.78;2.40;;;29.20;42.90;;;;;;5062503;28;20095;-62
2023/06/23 11:28:25;;;;;;;3.47;2.45;;;29.10;45.30;;;;;;5043969;28;20808;-61
2023/06/23 11:31:07;;;;;;;3.90;2.83;;;29.20;45.90;;;;;;5038446;28;20052;-62
2023/06/23 11:33:38;;;;;;;8.00;2.70;;;29.10;40.90;;;;;;5039818;28;20110;-62
2023/06/23 11:36:08;;;;;;;4.57;2.70;;;28.90;42.20;;;;;;5047559;28;20117;-61
2023/06/23 11:38:35;;;;;;;4.13;2.50;;;28.90;42.10;;;;;;5045403;28;20044;-62
2023/06/23 11:41:02;;;;;;;3.42;2.60;;;29.10;42.80;;;;;;5044047;28;20063;-62
2023/06/23 11:43:39;;;;;;;4.53;2.42;;;28.90;43.30;;;;;;5040953;28;20128;-63
2023/06/23 11:46:14;;;;;;;5.35;2.75;;;28.80;44.20;;;;;;5036611;28;20053;-62
2023/06/23 11:48:40;;;;;;;4.70;2.50;;;28.70;43.50;;;;;;5004083;28;1116767;-63
2023/06/23 11:51:08;;;;;;;3.88;2.53;;;28.50;43.10;;;;;;5047424;28;20076;-61
2023/06/23 11:53:34;;;;;;;3.15;2.10;;;28.40;43.50;;;;;;5027196;28;20402;-61
2023/06/23 11:56:01;;;;;;;2.50;2.25;;;28.50;42.90;;;;;;5029844;28;20048;-62
2023/06/23 11:58:31;;;;;;;2.55;2.10;;;28.40;41.90;;;;;;5011744;28;20045;-61
2023/06/23 12:00:57;;;;;;;3.85;2.30;;;28.70;42.30;;;;;;5039148;28;20037;-62
2023/06/23 12:03:23;;;;;;;3.00;2.08;;;28.80;40.10;;;;;;5041887;28;20098;-61
2023/06/23 12:05:48;;;;;;;2.85;2.08;;;28.80;39.20;;;;;;5029010;28;20595;-62
2023/06/23 12:08:14;;;;;;;4.90;2.20;;;28.70;39.00;;;;;;5036562;28;20052;-61
2023/06/23 12:10:41;;;;;;;2.00;1.80;;;28.90;39.70;;;;;;5038584;28;20083;-61
2023/06/23 12:13:09;;;;;;;3.40;1.90;;;29.00;40.20;;;;;;5036164;28;20370;-61
2023/06/23 12:15:41;;;;;;;2.30;1.90;;;29.20;39.90;;;;;;5032653;28;20044;-64
2023/06/23 12:18:08;;;;;;;2.45;2.17;;;29.40;41.30;;;;;;5030632;28;20767;-62
2023/06/23 12:20:39;;;;;;;4.60;2.50;;;29.50;39.30;;;;;;5030567;28;20041;-61
2023/06/23 12:23:06;;;;;;;2.63;2.22;;;29.70;41.50;;;;;;5034206;28;20041;-62
2023/06/23 12:25:36;;;;;;;3.28;2.38;;;30.40;38.90;;;;;;5046879;28;20048;-63
2023/06/23 12:28:03;;;;;;;2.90;2.15;;;31.70;37.70;;;;;;5043457;28;20094;-62
2023/06/23 12:30:41;;;;;;;4.70;2.15;;;32.90;35.50;;;;;;5024307;28;20072;-62
2023/06/23 12:33:22;;;;;;;2.78;2.13;;;34.40;37.70;;;;;;5032960;28;20048;-64
2023/06/23 12:36:05;;;;;;;7.30;2.90;;;35.40;38.10;;;;;;5039923;28;20084;-63
2023/06/23 12:38:36;;;;;;;3.15;2.45;;;36.40;36.00;;;;;;5033708;28;20086;-61
2023/06/23 12:41:19;;;;;;;2.88;2.40;;;37.40;29.30;;;;;;5058738;28;20053;-62
2023/06/23 12:43:48;;;;;;;4.22;2.60;;;36.90;35.60;;;;;;5045625;28;20365;-62
2023/06/23 12:46:17;;;;;;;4.30;2.47;;;37.00;30.90;;;;;;5044552;28;20103;-62
2023/06/23 12:48:44;;;;;;;3.22;2.25;;;37.50;28.90;;;;;;5047296;28;20049;-63
2023/06/23 12:51:10;;;;;;;3.47;2.17;;;38.50;28.50;;;;;;5046853;28;20049;-62